Richards, Texas
Current Conditions -  °F | °C
As of 7:53 PM on Thursday 18 Dec 2014 (Local Time) from KUTS Reporting Station
Overcast Overcast  
Wind Chill: 58°   Ceiling: 1200
Heat Index: 58°   Visibility: 10mi
Dew Point: 54°   Wind: 0mph
Humidity: 87%   Direction: NA
Pressure: 30.1"   Gusts: NA
Location:  30.54°N, 95.84°W
Report Text: KUTS 190153Z AUTO 00000KT 10SM OVC012 14/12 A3010 RMK AO2 SLP190 T01440122
Loading
Personal Weather Stations






























Interactive Weather Map New forecast layout! Learn more

10-Day Weather Forecast

Advertisements
Track Severe Weather on mobile